sensor_id;sensor_type;location;lat;lon;timestamp;P1;P2;P0
46591;PMS6003;32314;48.748;9.656;2022-08-25T00:01:59;6.50;6.50;5.50
46591;PMS6003;32314;48.748;9.656;2022-08-25T00:04:48;5.00;5.00;4.50
46591;PMS6003;32314;48.748;9.656;2022-08-25T00:07:35;5.50;5.50;4.25
46591;PMS6003;32314;48.748;9.656;2022-08-25T00:10:21;6.25;6.25;6.00
46591;PMS6003;32314;48.748;9.656;2022-08-25T00:13:07;6.50;6.50;5.75
46591;PMS6003;32314;48.748;9.656;2022-08-25T00:15:53;6.50;5.50;5.00
46591;PMS6003;32314;48.748;9.656;2022-08-25T00:18:40;6.25;6.25;5.25
46591;PMS6003;32314;48.748;9.656;2022-08-25T00:21:27;7.50;7.50;6.00
46591;PMS6003;32314;48.748;9.656;2022-08-25T00:24:14;7.25;7.25;6.00
46591;PMS6003;32314;48.748;9.656;2022-08-25T00:27:01;6.00;6.00;5.50
46591;PMS6003;32314;48.748;9.656;2022-08-25T00:29:48;8.00;8.00;7.00
46591;PMS6003;32314;48.748;9.656;2022-08-25T00:32:35;8.00;7.00;5.75
46591;PMS6003;32314;48.748;9.656;2022-08-25T00:35:21;7.25;7.25;6.25
46591;PMS6003;32314;48.748;9.656;2022-08-25T00:38:08;5.00;5.00;5.00
46591;PMS6003;32314;48.748;9.656;2022-08-25T00:40:55;6.50;6.00;5.25
46591;PMS6003;32314;48.748;9.656;2022-08-25T00:43:52;8.50;8.50;6.75
46591;PMS6003;32314;48.748;9.656;2022-08-25T00:46:43;6.00;6.00;4.25
46591;PMS6003;32314;48.748;9.656;2022-08-25T00:49:35;7.75;7.75;6.00
46591;PMS6003;32314;48.748;9.656;2022-08-25T00:52:26;8.00;6.75;5.50
46591;PMS6003;32314;48.748;9.656;2022-08-25T00:58:15;6.00;6.00;5.00
46591;PMS6003;32314;48.748;9.656;2022-08-25T01:01:04;6.75;6.75;5.50
46591;PMS6003;32314;48.748;9.656;2022-08-25T01:03:50;6.75;6.75;6.00
46591;PMS6003;32314;48.748;9.656;2022-08-25T01:06:37;5.25;5.25;5.00
46591;PMS6003;32314;48.748;9.656;2022-08-25T01:09:24;8.75;7.00;6.00
46591;PMS6003;32314;48.748;9.656;2022-08-25T01:12:10;7.25;7.25;5.50
46591;PMS6003;32314;48.748;9.656;2022-08-25T01:14:56;5.00;5.00;4.25
46591;PMS6003;32314;48.748;9.656;2022-08-25T01:17:47;5.75;5.75;5.00
46591;PMS6003;32314;48.748;9.656;2022-08-25T01:20:34;5.75;5.75;4.25
46591;PMS6003;32314;48.748;9.656;2022-08-25T01:23:21;8.75;8.75;7.00
46591;PMS6003;32314;48.748;9.656;2022-08-25T01:26:18;7.50;7.50;5.75
46591;PMS6003;32314;48.748;9.656;2022-08-25T01:29:06;7.75;7.25;6.25
46591;PMS6003;32314;48.748;9.656;2022-08-25T01:32:07;6.75;6.75;5.00
46591;PMS6003;32314;48.748;9.656;2022-08-25T01:34:54;7.75;6.00;5.50
46591;PMS6003;32314;48.748;9.656;2022-08-25T01:37:40;7.50;6.00;5.25
46591;PMS6003;32314;48.748;9.656;2022-08-25T01:40:26;6.75;6.75;6.00
46591;PMS6003;32314;48.748;9.656;2022-08-25T01:43:20;7.50;7.50;6.50
46591;PMS6003;32314;48.748;9.656;2022-08-25T01:46:16;7.75;7.75;6.00
46591;PMS6003;32314;48.748;9.656;2022-08-25T01:49:02;8.00;8.00;7.00
46591;PMS6003;32314;48.748;9.656;2022-08-25T01:51:54;10.00;8.75;7.00
46591;PMS6003;32314;48.748;9.656;2022-08-25T01:54:42;10.50;9.50;8.00
46591;PMS6003;32314;48.748;9.656;2022-08-25T01:57:29;9.00;9.00;7.50
46591;PMS6003;32314;48.748;9.656;2022-08-25T02:00:16;8.25;8.25;7.00
46591;PMS6003;32314;48.748;9.656;2022-08-25T02:03:04;8.25;8.25;7.00
46591;PMS6003;32314;48.748;9.656;2022-08-25T02:05:50;6.75;6.75;6.00
46591;PMS6003;32314;48.748;9.656;2022-08-25T02:08:38;6.25;6.25;5.25
46591;PMS6003;32314;48.748;9.656;2022-08-25T02:11:24;9.00;9.00;7.25
46591;PMS6003;32314;48.748;9.656;2022-08-25T02:14:12;8.50;7.00;6.25
46591;PMS6003;32314;48.748;9.656;2022-08-25T02:16:59;6.75;6.75;6.00
46591;PMS6003;32314;48.748;9.656;2022-08-25T02:19:45;6.00;6.00;5.50
46591;PMS6003;32314;48.748;9.656;2022-08-25T02:22:30;8.25;8.25;6.75
46591;PMS6003;32314;48.748;9.656;2022-08-25T02:25:17;5.00;5.00;3.00
46591;PMS6003;32314;48.748;9.656;2022-08-25T02:28:03;6.00;6.00;4.75
46591;PMS6003;32314;48.748;9.656;2022-08-25T02:30:50;8.00;8.00;6.00
46591;PMS6003;32314;48.748;9.656;2022-08-25T02:33:37;8.25;8.25;6.50
46591;PMS6003;32314;48.748;9.656;2022-08-25T02:36:23;6.75;6.75;5.50
46591;PMS6003;32314;48.748;9.656;2022-08-25T02:39:09;9.25;8.00;6.00
46591;PMS6003;32314;48.748;9.656;2022-08-25T02:41:55;7.50;7.50;6.00
46591;PMS6003;32314;48.748;9.656;2022-08-25T02:44:41;9.00;9.00;8.00
46591;PMS6003;32314;48.748;9.656;2022-08-25T02:47:27;10.00;8.25;6.25
46591;PMS6003;32314;48.748;9.656;2022-08-25T02:50:13;7.00;7.00;6.50
46591;PMS6003;32314;48.748;9.656;2022-08-25T02:52:59;9.25;8.00;6.00
46591;PMS6003;32314;48.748;9.656;2022-08-25T02:55:45;7.00;7.00;6.00
46591;PMS6003;32314;48.748;9.656;2022-08-25T02:58:32;9.00;9.00;7.00
46591;PMS6003;32314;48.748;9.656;2022-08-25T03:01:17;7.25;7.25;6.00
46591;PMS6003;32314;48.748;9.656;2022-08-25T03:04:04;8.50;8.50;7.50
46591;PMS6003;32314;48.748;9.656;2022-08-25T03:06:49;11.00;9.50;8.00
46591;PMS6003;32314;48.748;9.656;2022-08-25T03:09:35;14.50;10.25;9.00
46591;PMS6003;32314;48.748;9.656;2022-08-25T03:12:22;10.25;10.25;8.00
46591;PMS6003;32314;48.748;9.656;2022-08-25T03:15:08;9.75;9.75;7.25
46591;PMS6003;32314;48.748;9.656;2022-08-25T03:17:54;14.00;14.00;9.25
46591;PMS6003;32314;48.748;9.656;2022-08-25T03:20:40;9.75;8.00;7.00
46591;PMS6003;32314;48.748;9.656;2022-08-25T03:23:26;8.75;8.00;6.50
46591;PMS6003;32314;48.748;9.656;2022-08-25T03:26:12;11.00;8.00;7.00
46591;PMS6003;32314;48.748;9.656;2022-08-25T03:29:16;8.50;8.50;7.25
46591;PMS6003;32314;48.748;9.656;2022-08-25T03:32:02;8.00;7.50;6.00
46591;PMS6003;32314;48.748;9.656;2022-08-25T03:34:48;7.00;7.00;5.25
46591;PMS6003;32314;48.748;9.656;2022-08-25T03:37:35;9.25;7.50;6.00
46591;PMS6003;32314;48.748;9.656;2022-08-25T03:40:21;8.75;8.75;7.50
46591;PMS6003;32314;48.748;9.656;2022-08-25T03:43:07;6.25;6.25;5.25
46591;PMS6003;32314;48.748;9.656;2022-08-25T03:45:53;7.50;7.50;7.00
46591;PMS6003;32314;48.748;9.656;2022-08-25T03:48:40;9.25;8.00;6.75
46591;PMS6003;32314;48.748;9.656;2022-08-25T03:51:29;9.00;8.00;7.00
46591;PMS6003;32314;48.748;9.656;2022-08-25T03:54:18;7.50;7.50;6.25
46591;PMS6003;32314;48.748;9.656;2022-08-25T03:57:06;9.00;9.00;7.25
46591;PMS6003;32314;48.748;9.656;2022-08-25T03:59:53;13.25;10.50;7.75
46591;PMS6003;32314;48.748;9.656;2022-08-25T04:02:39;8.75;8.75;6.75
46591;PMS6003;32314;48.748;9.656;2022-08-25T04:05:25;10.00;10.00;7.50
46591;PMS6003;32314;48.748;9.656;2022-08-25T04:08:11;10.50;10.50;8.00
46591;PMS6003;32314;48.748;9.656;2022-08-25T04:10:57;7.25;7.25;6.25
46591;PMS6003;32314;48.748;9.656;2022-08-25T04:13:44;10.25;8.50;7.25
46591;PMS6003;32314;48.748;9.656;2022-08-25T04:16:31;7.50;7.50;7.00
46591;PMS6003;32314;48.748;9.656;2022-08-25T04:19:19;10.25;10.25;7.00
46591;PMS6003;32314;48.748;9.656;2022-08-25T04:22:05;9.00;9.00;7.50
46591;PMS6003;32314;48.748;9.656;2022-08-25T04:24:51;9.25;9.00;7.75
46591;PMS6003;32314;48.748;9.656;2022-08-25T04:27:37;10.25;9.75;8.00
46591;PMS6003;32314;48.748;9.656;2022-08-25T04:30:23;7.00;7.00;6.00
46591;PMS6003;32314;48.748;9.656;2022-08-25T04:33:08;8.50;8.50;7.00
46591;PMS6003;32314;48.748;9.656;2022-08-25T04:35:54;9.25;7.00;3.75
46591;PMS6003;32314;48.748;9.656;2022-08-25T04:38:41;11.00;11.00;8.75
46591;PMS6003;32314;48.748;9.656;2022-08-25T04:41:27;10.50;10.50;9.00
46591;PMS6003;32314;48.748;9.656;2022-08-25T04:44:14;10.75;10.75;8.50
46591;PMS6003;32314;48.748;9.656;2022-08-25T04:47:00;9.75;8.50;7.00
46591;PMS6003;32314;48.748;9.656;2022-08-25T04:49:49;9.75;9.75;6.75
46591;PMS6003;32314;48.748;9.656;2022-08-25T04:52:35;10.25;10.25;8.00
46591;PMS6003;32314;48.748;9.656;2022-08-25T04:55:22;12.75;12.75;9.00
46591;PMS6003;32314;48.748;9.656;2022-08-25T04:58:08;12.50;12.50;8.50
46591;PMS6003;32314;48.748;9.656;2022-08-25T05:00:59;9.50;9.50;8.25
46591;PMS6003;32314;48.748;9.656;2022-08-25T05:03:47;12.00;8.75;8.00
46591;PMS6003;32314;48.748;9.656;2022-08-25T05:06:36;10.00;10.00;7.00
46591;PMS6003;32314;48.748;9.656;2022-08-25T05:09:22;10.25;9.25;7.50
46591;PMS6003;32314;48.748;9.656;2022-08-25T05:12:08;15.25;13.50;8.50
46591;PMS6003;32314;48.748;9.656;2022-08-25T05:14:54;11.50;11.50;8.00
46591;PMS6003;32314;48.748;9.656;2022-08-25T05:17:43;11.00;11.00;8.00
46591;PMS6003;32314;48.748;9.656;2022-08-25T05:20:37;13.50;11.75;7.25
46591;PMS6003;32314;48.748;9.656;2022-08-25T05:23:23;10.75;10.00;8.25
46591;PMS6003;32314;48.748;9.656;2022-08-25T05:26:10;15.25;14.75;10.50
46591;PMS6003;32314;48.748;9.656;2022-08-25T05:28:59;14.00;13.75;10.00
46591;PMS6003;32314;48.748;9.656;2022-08-25T05:31:49;14.25;13.00;9.25
46591;PMS6003;32314;48.748;9.656;2022-08-25T05:34:38;13.75;12.75;9.25
46591;PMS6003;32314;48.748;9.656;2022-08-25T05:37:24;16.75;15.75;10.25
46591;PMS6003;32314;48.748;9.656;2022-08-25T05:40:11;18.50;14.50;10.00
46591;PMS6003;32314;48.748;9.656;2022-08-25T05:42:59;19.50;18.50;14.75
46591;PMS6003;32314;48.748;9.656;2022-08-25T05:45:45;15.25;15.25;11.25
46591;PMS6003;32314;48.748;9.656;2022-08-25T05:48:31;15.75;15.25;11.50
46591;PMS6003;32314;48.748;9.656;2022-08-25T05:51:18;16.75;16.75;11.50
46591;PMS6003;32314;48.748;9.656;2022-08-25T05:54:04;22.25;21.00;17.00
46591;PMS6003;32314;48.748;9.656;2022-08-25T05:56:50;16.75;16.00;11.75
46591;PMS6003;32314;48.748;9.656;2022-08-25T05:59:36;18.25;18.25;13.25
46591;PMS6003;32314;48.748;9.656;2022-08-25T06:02:22;18.50;16.75;11.50
46591;PMS6003;32314;48.748;9.656;2022-08-25T06:05:28;21.75;19.75;14.25
46591;PMS6003;32314;48.748;9.656;2022-08-25T06:08:14;18.25;18.25;14.50
46591;PMS6003;32314;48.748;9.656;2022-08-25T06:11:00;17.25;17.25;13.75
46591;PMS6003;32314;48.748;9.656;2022-08-25T06:13:46;17.00;17.00;13.75
46591;PMS6003;32314;48.748;9.656;2022-08-25T06:16:32;16.00;16.00;12.50
46591;PMS6003;32314;48.748;9.656;2022-08-25T06:19:18;18.25;18.25;13.75
46591;PMS6003;32314;48.748;9.656;2022-08-25T06:22:04;18.75;18.75;14.25
46591;PMS6003;32314;48.748;9.656;2022-08-25T06:24:50;18.50;18.50;12.50
46591;PMS6003;32314;48.748;9.656;2022-08-25T06:27:36;19.50;17.75;13.50
46591;PMS6003;32314;48.748;9.656;2022-08-25T06:30:22;15.00;15.00;11.00
46591;PMS6003;32314;48.748;9.656;2022-08-25T06:33:08;20.00;17.50;13.50
46591;PMS6003;32314;48.748;9.656;2022-08-25T06:35:54;19.25;17.25;13.50
46591;PMS6003;32314;48.748;9.656;2022-08-25T06:38:40;18.75;16.75;12.75
46591;PMS6003;32314;48.748;9.656;2022-08-25T06:41:26;18.25;16.50;13.00
46591;PMS6003;32314;48.748;9.656;2022-08-25T06:44:12;12.75;12.75;10.50
46591;PMS6003;32314;48.748;9.656;2022-08-25T06:46:58;16.75;16.50;13.00
46591;PMS6003;32314;48.748;9.656;2022-08-25T06:49:44;15.75;14.00;12.50
46591;PMS6003;32314;48.748;9.656;2022-08-25T06:52:30;12.25;12.25;11.25
46591;PMS6003;32314;48.748;9.656;2022-08-25T06:55:16;14.00;14.00;11.75
46591;PMS6003;32314;48.748;9.656;2022-08-25T06:58:02;15.50;14.00;10.00
46591;PMS6003;32314;48.748;9.656;2022-08-25T07:00:49;14.75;14.75;10.75
46591;PMS6003;32314;48.748;9.656;2022-08-25T07:03:35;13.75;13.75;10.75
46591;PMS6003;32314;48.748;9.656;2022-08-25T07:06:20;11.50;11.50;8.25
46591;PMS6003;32314;48.748;9.656;2022-08-25T07:09:07;13.50;13.00;10.75
46591;PMS6003;32314;48.748;9.656;2022-08-25T07:11:53;12.00;12.00;10.25
46591;PMS6003;32314;48.748;9.656;2022-08-25T07:14:39;12.75;12.00;9.75
46591;PMS6003;32314;48.748;9.656;2022-08-25T07:17:25;14.25;12.75;9.00
46591;PMS6003;32314;48.748;9.656;2022-08-25T07:20:11;14.25;11.50;9.25
46591;PMS6003;32314;48.748;9.656;2022-08-25T07:22:58;13.75;13.75;11.00
46591;PMS6003;32314;48.748;9.656;2022-08-25T07:25:43;12.00;12.00;10.25
46591;PMS6003;32314;48.748;9.656;2022-08-25T07:28:29;11.00;11.00;8.25
46591;PMS6003;32314;48.748;9.656;2022-08-25T07:31:15;14.25;12.00;9.00
46591;PMS6003;32314;48.748;9.656;2022-08-25T07:34:01;10.00;10.00;8.25
46591;PMS6003;32314;48.748;9.656;2022-08-25T07:37:06;12.25;11.00;9.25
46591;PMS6003;32314;48.748;9.656;2022-08-25T07:39:52;10.00;10.00;8.25
46591;PMS6003;32314;48.748;9.656;2022-08-25T07:42:38;10.00;10.00;8.25
46591;PMS6003;32314;48.748;9.656;2022-08-25T07:45:24;10.50;10.50;8.25
46591;PMS6003;32314;48.748;9.656;2022-08-25T07:48:15;11.25;11.25;9.25
46591;PMS6003;32314;48.748;9.656;2022-08-25T07:51:07;12.25;12.25;9.25
46591;PMS6003;32314;48.748;9.656;2022-08-25T07:53:54;7.25;5.00;4.75
46591;PMS6003;32314;48.748;9.656;2022-08-25T07:56:40;9.75;9.75;8.00
46591;PMS6003;32314;48.748;9.656;2022-08-25T07:59:27;10.25;10.00;7.50
46591;PMS6003;32314;48.748;9.656;2022-08-25T08:02:13;9.00;9.00;7.50
46591;PMS6003;32314;48.748;9.656;2022-08-25T08:04:59;11.50;10.00;9.00
46591;PMS6003;32314;48.748;9.656;2022-08-25T08:07:45;10.75;10.75;8.00
46591;PMS6003;32314;48.748;9.656;2022-08-25T08:10:31;10.00;10.00;7.75
46591;PMS6003;32314;48.748;9.656;2022-08-25T08:13:17;11.75;10.00;8.25
46591;PMS6003;32314;48.748;9.656;2022-08-25T08:16:07;12.00;12.00;9.75
46591;PMS6003;32314;48.748;9.656;2022-08-25T08:18:56;11.25;10.00;7.75
46591;PMS6003;32314;48.748;9.656;2022-08-25T08:21:43;10.75;10.75;9.00
46591;PMS6003;32314;48.748;9.656;2022-08-25T08:24:31;9.75;9.75;9.25
46591;PMS6003;32314;48.748;9.656;2022-08-25T08:27:18;9.33;9.33;8.33
46591;PMS6003;32314;48.748;9.656;2022-08-25T08:30:05;9.67;9.00;7.67
46591;PMS6003;32314;48.748;9.656;2022-08-25T08:32:51;9.67;9.00;9.00
46591;PMS6003;32314;48.748;9.656;2022-08-25T08:35:37;8.67;8.67;8.33
46591;PMS6003;32314;48.748;9.656;2022-08-25T08:38:23;11.00;11.00;9.50
46591;PMS6003;32314;48.748;9.656;2022-08-25T08:54:03;9.00;9.00;7.00
46591;PMS6003;32314;48.748;9.656;2022-08-25T08:57:12;8.67;8.67;7.33
46591;PMS6003;32314;48.748;9.656;2022-08-25T09:00:03;9.67;9.67;9.00
46591;PMS6003;32314;48.748;9.656;2022-08-25T09:03:04;9.33;9.33;7.67
46591;PMS6003;32314;48.748;9.656;2022-08-25T09:05:53;10.00;10.00;8.33
46591;PMS6003;32314;48.748;9.656;2022-08-25T09:08:40;10.67;9.67;8.00
46591;PMS6003;32314;48.748;9.656;2022-08-25T09:20:38;7.33;7.33;7.00
46591;PMS6003;32314;48.748;9.656;2022-08-25T09:30:24;10.00;10.00;8.67
46591;PMS6003;32314;48.748;9.656;2022-08-25T09:33:14;6.33;6.33;6.00
46591;PMS6003;32314;48.748;9.656;2022-08-25T09:36:04;9.00;8.67;7.00
46591;PMS6003;32314;48.748;9.656;2022-08-25T09:38:49;8.00;8.00;7.33
46591;PMS6003;32314;48.748;9.656;2022-08-25T09:41:41;6.00;6.00;4.67
46591;PMS6003;32314;48.748;9.656;2022-08-25T09:44:39;10.00;10.00;7.33
46591;PMS6003;32314;48.748;9.656;2022-08-25T09:47:28;6.00;2.67;2.00
46591;PMS6003;32314;48.748;9.656;2022-08-25T09:50:15;8.33;8.33;7.00
46591;PMS6003;32314;48.748;9.656;2022-08-25T09:56:33;9.00;8.00;7.50
46591;PMS6003;32314;48.748;9.656;2022-08-25T09:59:41;7.33;7.33;6.00
46591;PMS6003;32314;48.748;9.656;2022-08-25T10:02:30;8.25;8.25;7.75
46591;PMS6003;32314;48.748;9.656;2022-08-25T10:05:28;8.00;8.00;7.00
46591;PMS6003;32314;48.748;9.656;2022-08-25T10:12:28;6.75;6.25;5.25
46591;PMS6003;32314;48.748;9.656;2022-08-25T10:15:45;5.00;5.00;4.75
46591;PMS6003;32314;48.748;9.656;2022-08-25T10:25:25;7.25;6.00;5.75
46591;PMS6003;32314;48.748;9.656;2022-08-25T10:42:40;8.00;6.00;6.00
46591;PMS6003;32314;48.748;9.656;2022-08-25T10:50:09;5.25;4.25;4.00
46591;PMS6003;32314;48.748;9.656;2022-08-25T10:56:28;5.75;5.75;5.50
46591;PMS6003;32314;48.748;9.656;2022-08-25T10:59:56;6.25;6.25;6.00
46591;PMS6003;32314;48.748;9.656;2022-08-25T11:06:57;6.00;6.00;4.25
46591;PMS6003;32314;48.748;9.656;2022-08-25T11:10:11;4.00;4.00;3.50
46591;PMS6003;32314;48.748;9.656;2022-08-25T11:13:03;6.75;5.00;5.00
46591;PMS6003;32314;48.748;9.656;2022-08-25T11:15:54;5.50;5.50;4.75
46591;PMS6003;32314;48.748;9.656;2022-08-25T11:19:06;7.50;6.50;5.50
46591;PMS6003;32314;48.748;9.656;2022-08-25T11:25:28;5.25;5.25;5.00
46591;PMS6003;32314;48.748;9.656;2022-08-25T11:28:26;7.50;7.50;6.25
46591;PMS6003;32314;48.748;9.656;2022-08-25T11:31:24;7.00;7.00;6.00
46591;PMS6003;32314;48.748;9.656;2022-08-25T11:34:19;7.75;7.75;7.00
46591;PMS6003;32314;48.748;9.656;2022-08-25T11:37:25;7.75;7.75;6.75
46591;PMS6003;32314;48.748;9.656;2022-08-25T11:40:37;10.00;10.00;9.25
46591;PMS6003;32314;48.748;9.656;2022-08-25T11:50:00;7.00;7.00;6.00
46591;PMS6003;32314;48.748;9.656;2022-08-25T11:52:59;6.75;6.75;6.00
46591;PMS6003;32314;48.748;9.656;2022-08-25T11:56:02;7.00;7.00;6.00
46591;PMS6003;32314;48.748;9.656;2022-08-25T11:59:02;9.25;9.00;7.00
46591;PMS6003;32314;48.748;9.656;2022-08-25T12:02:06;8.50;7.00;6.00
46591;PMS6003;32314;48.748;9.656;2022-08-25T12:09:17;7.25;7.25;5.25
46591;PMS6003;32314;48.748;9.656;2022-08-25T12:12:55;6.00;6.00;5.00
46591;PMS6003;32314;48.748;9.656;2022-08-25T12:21:16;7.25;7.25;7.00
46591;PMS6003;32314;48.748;9.656;2022-08-25T12:24:17;8.75;8.75;8.00
46591;PMS6003;32314;48.748;9.656;2022-08-25T12:30:22;8.75;8.75;7.75
46591;PMS6003;32314;48.748;9.656;2022-08-25T12:36:26;9.25;9.25;7.50
46591;PMS6003;32314;48.748;9.656;2022-08-25T12:39:19;8.50;8.50;7.00
46591;PMS6003;32314;48.748;9.656;2022-08-25T12:42:17;9.00;9.00;9.00
46591;PMS6003;32314;48.748;9.656;2022-08-25T13:00:31;8.50;8.50;7.00
46591;PMS6003;32314;48.748;9.656;2022-08-25T13:20:37;7.75;7.75;7.00
46591;PMS6003;32314;48.748;9.656;2022-08-25T13:23:36;8.00;8.00;7.25
46591;PMS6003;32314;48.748;9.656;2022-08-25T13:29:22;10.00;10.00;8.25
46591;PMS6003;32314;48.748;9.656;2022-08-25T13:32:17;7.25;7.25;6.75
46591;PMS6003;32314;48.748;9.656;2022-08-25T13:38:17;6.00;6.00;5.50
46591;PMS6003;32314;48.748;9.656;2022-08-25T13:41:07;7.25;7.25;6.25
46591;PMS6003;32314;48.748;9.656;2022-08-25T13:43:56;6.00;6.00;6.00
46591;PMS6003;32314;48.748;9.656;2022-08-25T13:46:43;8.00;8.00;6.00
46591;PMS6003;32314;48.748;9.656;2022-08-25T13:49:30;9.00;8.00;6.50
46591;PMS6003;32314;48.748;9.656;2022-08-25T13:52:26;6.25;6.25;5.75
46591;PMS6003;32314;48.748;9.656;2022-08-25T13:55:20;9.25;9.25;8.00
46591;PMS6003;32314;48.748;9.656;2022-08-25T13:58:14;8.25;7.50;6.75
46591;PMS6003;32314;48.748;9.656;2022-08-25T14:01:10;6.75;6.75;6.25
46591;PMS6003;32314;48.748;9.656;2022-08-25T14:04:18;6.50;6.50;6.25
46591;PMS6003;32314;48.748;9.656;2022-08-25T14:07:29;7.25;7.25;7.25
46591;PMS6003;32314;48.748;9.656;2022-08-25T14:13:57;6.00;6.00;5.75
46591;PMS6003;32314;48.748;9.656;2022-08-25T14:17:08;6.75;6.75;6.00
46591;PMS6003;32314;48.748;9.656;2022-08-25T14:20:04;9.00;7.50;6.25
46591;PMS6003;32314;48.748;9.656;2022-08-25T14:23:14;7.00;7.00;6.00
46591;PMS6003;32314;48.748;9.656;2022-08-25T14:26:04;8.25;8.25;7.50
46591;PMS6003;32314;48.748;9.656;2022-08-25T14:28:50;6.00;6.00;5.75
46591;PMS6003;32314;48.748;9.656;2022-08-25T14:31:41;11.00;9.00;8.00
46591;PMS6003;32314;48.748;9.656;2022-08-25T14:34:34;7.50;7.50;6.75
46591;PMS6003;32314;48.748;9.656;2022-08-25T14:37:22;7.00;7.00;7.00
46591;PMS6003;32314;48.748;9.656;2022-08-25T14:40:08;8.25;8.25;7.00
46591;PMS6003;32314;48.748;9.656;2022-08-25T14:42:59;7.25;7.25;6.50
46591;PMS6003;32314;48.748;9.656;2022-08-25T14:45:51;8.00;8.00;7.25
46591;PMS6003;32314;48.748;9.656;2022-08-25T14:48:41;6.75;6.75;5.75
46591;PMS6003;32314;48.748;9.656;2022-08-25T14:51:29;8.50;8.50;8.00
46591;PMS6003;32314;48.748;9.656;2022-08-25T14:54:19;6.25;6.25;6.00
46591;PMS6003;32314;48.748;9.656;2022-08-25T14:57:12;7.75;7.75;6.00
46591;PMS6003;32314;48.748;9.656;2022-08-25T14:59:58;5.00;5.00;3.75
46591;PMS6003;32314;48.748;9.656;2022-08-25T15:02:46;7.00;7.00;6.00
46591;PMS6003;32314;48.748;9.656;2022-08-25T15:05:49;6.25;6.00;5.50
46591;PMS6003;32314;48.748;9.656;2022-08-25T15:08:35;9.00;7.00;6.50
46591;PMS6003;32314;48.748;9.656;2022-08-25T15:11:40;6.00;6.00;6.00
46591;PMS6003;32314;48.748;9.656;2022-08-25T15:14:31;8.00;6.50;6.00
46591;PMS6003;32314;48.748;9.656;2022-08-25T15:17:19;7.00;7.00;6.00
46591;PMS6003;32314;48.748;9.656;2022-08-25T15:20:20;8.75;7.25;6.25
46591;PMS6003;32314;48.748;9.656;2022-08-25T15:23:11;5.00;4.75;4.00
46591;PMS6003;32314;48.748;9.656;2022-08-25T15:26:05;7.50;7.50;7.00
46591;PMS6003;32314;48.748;9.656;2022-08-25T15:29:35;6.50;6.50;6.00
46591;PMS6003;32314;48.748;9.656;2022-08-25T15:32:31;6.00;6.00;5.75
46591;PMS6003;32314;48.748;9.656;2022-08-25T15:35:23;6.50;6.50;6.00
46591;PMS6003;32314;48.748;9.656;2022-08-25T15:38:46;6.00;6.00;5.00
46591;PMS6003;32314;48.748;9.656;2022-08-25T15:41:35;8.00;6.25;6.00
46591;PMS6003;32314;48.748;9.656;2022-08-25T15:44:27;4.25;4.25;3.00
46591;PMS6003;32314;48.748;9.656;2022-08-25T15:47:29;8.00;8.00;7.50
46591;PMS6003;32314;48.748;9.656;2022-08-25T15:50:28;7.00;7.00;6.25
46591;PMS6003;32314;48.748;9.656;2022-08-25T15:54:19;6.25;6.25;5.00
46591;PMS6003;32314;48.748;9.656;2022-08-25T15:57:14;5.00;5.00;5.00
46591;PMS6003;32314;48.748;9.656;2022-08-25T16:00:25;4.75;4.75;4.00
46591;PMS6003;32314;48.748;9.656;2022-08-25T16:03:43;6.75;6.75;5.75
46591;PMS6003;32314;48.748;9.656;2022-08-25T16:06:35;5.50;5.50;5.25
46591;PMS6003;32314;48.748;9.656;2022-08-25T16:09:44;5.00;5.00;5.00
46591;PMS6003;32314;48.748;9.656;2022-08-25T16:12:39;7.25;7.25;5.00
46591;PMS6003;32314;48.748;9.656;2022-08-25T16:15:37;6.25;6.25;5.75
46591;PMS6003;32314;48.748;9.656;2022-08-25T16:18:49;7.75;6.00;5.25
46591;PMS6003;32314;48.748;9.656;2022-08-25T16:21:41;6.00;6.00;4.50
46591;PMS6003;32314;48.748;9.656;2022-08-25T16:24:28;6.75;5.75;5.25
46591;PMS6003;32314;48.748;9.656;2022-08-25T16:27:36;7.00;7.00;6.75
46591;PMS6003;32314;48.748;9.656;2022-08-25T16:30:27;7.00;7.00;6.50
46591;PMS6003;32314;48.748;9.656;2022-08-25T16:33:36;9.00;8.75;7.75
46591;PMS6003;32314;48.748;9.656;2022-08-25T16:36:38;7.25;7.25;6.00
46591;PMS6003;32314;48.748;9.656;2022-08-25T16:39:37;8.00;6.75;5.75
46591;PMS6003;32314;48.748;9.656;2022-08-25T16:42:38;6.00;5.75;5.00
46591;PMS6003;32314;48.748;9.656;2022-08-25T16:45:43;7.50;7.50;6.50
46591;PMS6003;32314;48.748;9.656;2022-08-25T16:48:38;7.25;7.25;5.75
46591;PMS6003;32314;48.748;9.656;2022-08-25T16:51:39;6.25;6.25;6.00
46591;PMS6003;32314;48.748;9.656;2022-08-25T16:54:33;6.00;6.00;5.00
46591;PMS6003;32314;48.748;9.656;2022-08-25T16:57:48;6.25;5.50;5.00
46591;PMS6003;32314;48.748;9.656;2022-08-25T17:00:44;5.50;5.50;5.25
46591;PMS6003;32314;48.748;9.656;2022-08-25T17:03:38;5.75;5.75;5.25
46591;PMS6003;32314;48.748;9.656;2022-08-25T17:06:42;8.50;7.25;7.00
46591;PMS6003;32314;48.748;9.656;2022-08-25T17:09:56;6.25;6.25;5.00
46591;PMS6003;32314;48.748;9.656;2022-08-25T17:13:01;7.75;7.75;6.75
46591;PMS6003;32314;48.748;9.656;2022-08-25T17:16:02;7.50;7.50;6.50
46591;PMS6003;32314;48.748;9.656;2022-08-25T17:19:48;7.00;7.00;6.00
46591;PMS6003;32314;48.748;9.656;2022-08-25T17:22:45;7.25;7.25;6.50
46591;PMS6003;32314;48.748;9.656;2022-08-25T17:25:43;6.25;6.25;5.25
46591;PMS6003;32314;48.748;9.656;2022-08-25T17:28:37;8.25;7.25;6.75
46591;PMS6003;32314;48.748;9.656;2022-08-25T17:31:32;7.00;7.00;6.25
46591;PMS6003;32314;48.748;9.656;2022-08-25T17:34:30;7.00;7.00;6.00
46591;PMS6003;32314;48.748;9.656;2022-08-25T17:37:26;9.00;7.75;7.00
46591;PMS6003;32314;48.748;9.656;2022-08-25T17:40:26;7.75;7.75;7.00
46591;PMS6003;32314;48.748;9.656;2022-08-25T17:43:17;7.25;7.25;7.00
46591;PMS6003;32314;48.748;9.656;2022-08-25T17:46:20;8.00;7.00;6.75
46591;PMS6003;32314;48.748;9.656;2022-08-25T17:49:30;7.25;7.25;5.50
46591;PMS6003;32314;48.748;9.656;2022-08-25T17:52:26;7.00;7.00;6.00
46591;PMS6003;32314;48.748;9.656;2022-08-25T17:55:15;6.75;6.75;6.25
46591;PMS6003;32314;48.748;9.656;2022-08-25T17:58:01;8.50;6.75;5.25
46591;PMS6003;32314;48.748;9.656;2022-08-25T18:00:58;7.00;7.00;7.00
46591;PMS6003;32314;48.748;9.656;2022-08-25T18:03:48;7.33;7.33;6.00
46591;PMS6003;32314;48.748;9.656;2022-08-25T18:06:43;7.67;7.00;7.00
46591;PMS6003;32314;48.748;9.656;2022-08-25T18:09:43;7.67;6.33;5.67
46591;PMS6003;32314;48.748;9.656;2022-08-25T18:12:31;9.00;9.00;7.00
46591;PMS6003;32314;48.748;9.656;2022-08-25T18:15:23;7.00;7.00;6.00
46591;PMS6003;32314;48.748;9.656;2022-08-25T18:18:26;8.33;8.33;7.00
46591;PMS6003;32314;48.748;9.656;2022-08-25T18:25:42;8.67;8.67;6.33
46591;PMS6003;32314;48.748;9.656;2022-08-25T18:28:31;9.00;9.00;7.67
46591;PMS6003;32314;48.748;9.656;2022-08-25T18:34:42;10.25;10.25;9.75
46591;PMS6003;32314;48.748;9.656;2022-08-25T18:37:32;9.00;9.00;8.00
46591;PMS6003;32314;48.748;9.656;2022-08-25T18:40:39;12.25;11.75;9.00
46591;PMS6003;32314;48.748;9.656;2022-08-25T18:43:44;10.75;10.25;9.25
46591;PMS6003;32314;48.748;9.656;2022-08-25T18:46:46;10.00;10.00;9.00
46591;PMS6003;32314;48.748;9.656;2022-08-25T18:49:51;9.00;9.00;8.50
46591;PMS6003;32314;48.748;9.656;2022-08-25T18:53:06;11.00;11.00;8.00
46591;PMS6003;32314;48.748;9.656;2022-08-25T18:55:59;10.00;10.00;8.50
46591;PMS6003;32314;48.748;9.656;2022-08-25T18:58:55;10.75;10.75;9.25
46591;PMS6003;32314;48.748;9.656;2022-08-25T19:01:47;10.50;10.00;9.00
46591;PMS6003;32314;48.748;9.656;2022-08-25T19:04:44;10.00;10.00;9.00
46591;PMS6003;32314;48.748;9.656;2022-08-25T19:07:42;12.75;12.75;11.00